Time;durP1;ratioP1;P1;durP2;ratioP2;P2;SDS_P1;SDS_P2;PMS_P1;PMS_P2;Temp;Humidity;BMP_temperature;BMP_pressure;BME280_temperature;BME280_humidity;BME280_pressure;Samples;Min_cycle;Max_cycle;Signal;HPM_P1;HPM_P2
2022/05/05 00:01:44;;;;;;;7.63;3.70;;;;;;;13.81;53.79;100228.84;5042422;28;20221;-61
2022/05/05 00:04:10;;;;;;;4.53;3.43;;;;;;;13.80;52.75;100227.19;5036249;28;20209;-62
2022/05/05 00:06:36;;;;;;;8.03;3.60;;;;;;;13.78;52.88;100228.22;5037397;28;20177;-62
2022/05/05 00:09:02;;;;;;;6.10;4.17;;;;;;;13.70;52.88;100233.91;5052258;28;20169;-61
2022/05/05 00:14:24;;;;;;;5.80;3.50;;;;;;;13.75;52.44;100221.50;5055452;28;20270;-62
2022/05/05 00:16:50;;;;;;;9.67;3.83;;;;;;;13.71;55.29;100227.81;5052978;28;20170;-61
2022/05/05 00:19:16;;;;;;;6.57;3.67;;;;;;;13.71;54.89;100227.81;5061717;28;20567;-60
2022/05/05 00:21:41;;;;;;;6.10;3.30;;;;;;;13.63;53.84;100223.16;5062072;28;20235;-61
2022/05/05 00:24:07;;;;;;;7.77;4.13;;;;;;;13.55;54.42;100221.03;5072812;28;20184;-61
2022/05/05 00:26:33;;;;;;;7.03;3.50;;;;;;;13.55;53.88;100210.69;5072665;28;20181;-62
2022/05/05 00:28:58;;;;;;;5.90;3.80;;;;;;;13.58;54.12;100209.66;5072018;28;20529;-62
2022/05/05 00:31:24;;;;;;;9.23;3.37;;;;;;;13.59;54.70;100216.50;5061841;28;20282;-60
2022/05/05 00:33:49;;;;;;;5.20;3.50;;;;;;;13.64;55.08;100214.44;5067823;28;20189;-61
2022/05/05 00:36:15;;;;;;;5.20;3.70;;;;;;;13.70;55.28;100215.81;5061260;28;20186;-62
2022/05/05 00:38:40;;;;;;;6.43;3.57;;;;;;;13.76;55.60;100222.34;5052719;28;20202;-61
2022/05/05 00:41:06;;;;;;;4.30;3.90;;;;;;;13.79;56.29;100210.03;5042262;28;20264;-61
2022/05/05 00:43:33;;;;;;;6.20;3.90;;;;;;;13.71;56.86;100205.34;5052046;28;20181;-60
2022/05/05 00:45:59;;;;;;;7.20;3.70;;;;;;;13.54;56.17;100214.25;5055326;28;20193;-62
2022/05/05 00:48:28;;;;;;;5.77;3.10;;;;;;;13.54;55.34;100214.25;5072711;28;20185;-61
2022/05/05 00:50:54;;;;;;;6.10;3.20;;;;;;;13.57;55.19;100208.03;5045279;28;20812;-61
2022/05/05 00:53:20;;;;;;;5.00;3.70;;;;;;;13.55;54.62;100205.53;5047689;28;20186;-61
2022/05/05 00:55:46;;;;;;;4.97;3.20;;;;;;;13.49;54.67;100205.94;5042317;28;20184;-61
2022/05/05 00:58:14;;;;;;;5.57;3.47;;;;;;;13.46;54.68;100207.88;5052284;28;20215;-61
2022/05/05 01:00:40;;;;;;;9.10;3.80;;;;;;;13.54;55.20;100214.25;5047158;28;20228;-61
2022/05/05 01:03:08;;;;;;;7.00;3.40;;;;;;;13.59;54.79;100208.75;5071750;28;20282;-61
2022/05/05 01:05:34;;;;;;;4.83;3.20;;;;;;;13.65;55.17;100207.53;5054323;28;20181;-61
2022/05/05 01:07:59;;;;;;;5.43;3.20;;;;;;;13.70;54.92;100211.44;5070373;28;20212;-62
2022/05/05 01:10:27;;;;;;;6.07;3.50;;;;;;;13.64;55.10;100205.88;5061389;28;20319;-62
2022/05/05 01:12:53;;;;;;;4.73;2.93;;;;;;;13.71;55.39;100207.13;5071303;28;20221;-60
2022/05/05 01:15:19;;;;;;;3.87;2.93;;;;;;;13.72;56.35;100213.97;5072261;28;20593;-60
2022/05/05 01:17:45;;;;;;;4.30;3.57;;;;;;;13.75;56.70;100211.16;5071696;28;20220;-60
2022/05/05 01:20:18;;;;;;;5.03;2.93;;;;;;;13.67;56.56;100211.66;5062038;28;20275;-60
2022/05/05 01:22:44;;;;;;;4.50;3.53;;;;;;;13.75;56.49;100218.91;5071384;28;20181;-61
2022/05/05 01:28:12;;;;;;;4.97;3.23;;;;;;;13.63;55.95;100224.88;5071754;28;20195;-62
2022/05/05 01:30:43;;;;;;;8.13;3.87;;;;;;;13.64;56.01;100223.97;5061513;28;20227;-61
2022/05/05 01:33:23;;;;;;;6.40;3.87;;;;;;;13.67;56.31;100222.00;5071546;28;20214;-61
2022/05/05 01:35:51;;;;;;;6.70;3.20;;;;;;;13.66;56.89;100227.28;5072096;28;20172;-61
2022/05/05 01:38:19;;;;;;;6.33;3.37;;;;;;;13.69;56.85;100229.66;5071687;28;20197;-61
2022/05/05 01:40:48;;;;;;;5.80;3.40;;;;;;;13.62;56.83;100223.22;5061368;28;20525;-60
2022/05/05 01:43:15;;;;;;;7.10;3.60;;;;;;;13.59;55.55;100234.59;5059610;28;20184;-62
2022/05/05 01:45:41;;;;;;;6.13;3.67;;;;;;;13.55;55.58;100230.56;5067205;28;20173;-61
2022/05/05 01:48:07;;;;;;;5.73;3.60;;;;;;;13.49;56.20;100228.38;5065535;28;20267;-60
2022/05/05 01:50:32;;;;;;;6.90;4.10;;;;;;;13.33;55.81;100231.06;5078356;28;20220;-61
2022/05/05 01:52:59;;;;;;;7.17;3.90;;;;;;;13.45;57.82;100230.31;5083415;28;20172;-61
2022/05/05 01:55:24;;;;;;;4.50;3.63;;;;;;;13.60;57.20;100240.59;5070522;28;20647;-62
2022/05/05 01:57:52;;;;;;;4.63;3.63;;;;;;;13.62;57.45;100239.56;5070985;28;20236;-62
2022/05/05 02:00:18;;;;;;;6.23;4.07;;;;;;;13.52;56.74;100234.16;5061565;28;20173;-61
2022/05/05 02:02:44;;;;;;;7.27;3.93;;;;;;;13.53;57.60;100235.00;5052739;28;20176;-61
2022/05/05 02:05:10;;;;;;;5.47;3.83;;;;;;;13.47;58.28;100231.06;5058414;28;20260;-62
2022/05/05 02:07:37;;;;;;;7.90;3.90;;;;;;;13.57;58.64;100236.47;5070960;28;20263;-60
2022/05/05 02:10:04;;;;;;;5.60;3.90;;;;;;;13.67;57.85;100245.28;5066570;28;20200;-61
2022/05/05 02:12:31;;;;;;;5.43;4.33;;;;;;;13.69;57.72;100240.84;5069991;28;20192;-61
2022/05/05 02:14:57;;;;;;;5.43;4.33;;;;;;;13.64;58.13;100236.88;5051820;28;20313;-60
2022/05/05 02:17:22;;;;;;;6.70;4.23;;;;;;;13.67;57.18;100242.69;5051240;28;20283;-61
2022/05/05 02:19:48;;;;;;;6.83;4.20;;;;;;;13.70;57.71;100233.91;5064470;28;20930;-60
2022/05/05 02:22:14;;;;;;;9.93;5.50;;;;;;;13.60;58.09;100236.25;5061306;28;20224;-62
2022/05/05 02:24:39;;;;;;;7.07;4.93;;;;;;;13.60;58.76;100243.19;5075474;28;20192;-61
2022/05/05 02:27:05;;;;;;;6.53;4.37;;;;;;;13.63;59.82;100243.81;5074927;28;20165;-62
2022/05/05 02:29:30;;;;;;;6.77;4.30;;;;;;;13.56;61.10;100251.13;5075199;28;20642;-61
2022/05/05 02:31:56;;;;;;;8.80;6.07;;;;;;;13.52;63.15;100244.50;5063951;28;20366;-62
2022/05/05 02:34:21;;;;;;;8.47;5.47;;;;;;;13.45;65.64;100247.59;5075332;28;20181;-61
2022/05/05 02:39:30;;;;;;;10.93;6.50;;;;;;;13.34;68.30;100245.66;5074840;28;20275;-61
2022/05/05 02:41:56;;;;;;;9.47;6.23;;;;;;;13.35;69.54;100239.56;5064094;28;20663;-61
2022/05/05 02:44:21;;;;;;;9.97;6.67;;;;;;;13.33;70.22;100239.66;5058795;28;20238;-62
2022/05/05 02:46:46;;;;;;;8.70;6.77;;;;;;;13.40;71.00;100242.72;5069740;28;20533;-61
2022/05/05 02:49:13;;;;;;;9.90;6.60;;;;;;;13.19;70.44;100237.13;5055106;28;20174;-61
2022/05/05 02:51:38;;;;;;;12.07;7.07;;;;;;;13.16;71.37;100242.47;5048606;28;20229;-61
2022/05/05 02:56:48;;;;;;;11.30;6.23;;;;;;;13.05;75.87;100238.81;5074671;28;20226;-61
2022/05/05 02:59:13;;;;;;;10.87;7.60;;;;;;;12.97;78.02;100243.63;5074971;28;20208;-62
2022/05/05 03:01:39;;;;;;;10.70;7.77;;;;;;;12.96;80.36;100243.72;5027000;28;20245;-61
2022/05/05 03:04:04;;;;;;;9.87;7.20;;;;;;;12.81;81.66;100243.75;5046850;28;20234;-63
2022/05/05 03:06:29;;;;;;;9.80;8.13;;;;;;;12.83;82.35;100247.06;5054111;28;20220;-61
2022/05/05 03:08:55;;;;;;;8.90;7.73;;;;;;;12.71;83.12;100251.25;5053187;28;20659;-61
2022/05/05 03:11:20;;;;;;;10.33;8.23;;;;;;;12.63;83.22;100255.19;5065366;28;20228;-61
2022/05/05 03:13:45;;;;;;;14.13;8.40;;;;;;;12.81;81.45;100254.06;5072831;28;20646;-62
2022/05/05 03:16:11;;;;;;;11.80;8.13;;;;;;;12.74;80.89;100251.06;5063050;28;20244;-61
2022/05/05 03:18:40;;;;;;;8.50;7.60;;;;;;;12.73;82.14;100259.72;5073932;28;20666;-61
2022/05/05 03:21:06;;;;;;;8.67;7.47;;;;;;;12.86;81.00;100262.38;5072432;28;20750;-61
2022/05/05 03:23:31;;;;;;;10.57;8.20;;;;;;;12.91;81.23;100259.50;5081818;28;20244;-61
2022/05/05 03:25:56;;;;;;;13.70;8.80;;;;;;;12.85;82.26;100270.22;5074590;28;20177;-63
2022/05/05 03:28:21;;;;;;;10.33;9.03;;;;;;;12.93;82.48;100262.00;5074084;28;20227;-62
2022/05/05 03:30:47;;;;;;;12.03;10.53;;;;;;;12.79;84.39;100268.84;5042708;28;20247;-61
2022/05/05 03:33:12;;;;;;;14.03;10.50;;;;;;;12.88;85.25;100267.44;5063689;28;20192;-61
2022/05/05 03:35:37;;;;;;;16.53;11.33;;;;;;;12.81;86.72;100264.41;5052020;28;20174;-62
2022/05/05 03:38:02;;;;;;;14.60;11.63;;;;;;;12.82;86.74;100271.22;5053524;28;20205;-62
2022/05/05 03:40:28;;;;;;;13.20;11.23;;;;;;;12.62;88.84;100276.78;5047251;28;20902;-62
2022/05/05 03:42:53;;;;;;;13.50;12.10;;;;;;;12.30;91.76;100280.34;5070705;28;20234;-61
2022/05/05 03:45:19;;;;;;;12.83;11.27;;;;;;;12.38;91.07;100283.31;5074062;28;20184;-62
2022/05/05 03:47:45;;;;;;;16.10;12.13;;;;;;;12.46;90.73;100272.53;5073372;28;20264;-61
2022/05/05 03:50:10;;;;;;;16.73;11.00;;;;;;;12.59;90.35;100282.97;5063636;28;20528;-61
2022/05/05 03:52:35;;;;;;;12.43;11.13;;;;;;;12.48;92.14;100285.34;5045220;28;20177;-61
2022/05/05 03:55:01;;;;;;;16.03;11.30;;;;;;;12.49;91.84;100281.84;5055562;28;20189;-61
2022/05/05 03:57:26;;;;;;;13.00;11.57;;;;;;;12.37;92.30;100289.38;5051848;28;20193;-62
2022/05/05 03:59:51;;;;;;;14.53;11.37;;;;;;;12.50;91.50;100293.81;5054824;28;20263;-61
2022/05/05 04:02:17;;;;;;;16.10;12.40;;;;;;;12.55;90.65;100294.38;5060541;28;20223;-62
2022/05/05 04:04:42;;;;;;;14.07;11.00;;;;;;;12.59;89.98;100294.09;5053723;28;20229;-61
2022/05/05 04:07:07;;;;;;;14.90;11.47;;;;;;;12.71;89.77;100289.13;5061499;28;20173;-62
2022/05/05 04:09:32;;;;;;;13.97;11.47;;;;;;;12.67;90.58;100293.63;5072179;28;20189;-62
2022/05/05 04:11:58;;;;;;;14.47;12.30;;;;;;;12.71;90.42;100296.88;5048924;28;20298;-62
2022/05/05 04:14:23;;;;;;;15.33;12.50;;;;;;;12.72;90.67;100301.94;5073346;28;20241;-61
2022/05/05 04:16:48;;;;;;;18.23;12.57;;;;;;;12.73;89.32;100295.03;5073140;28;20546;-61
2022/05/05 04:19:14;;;;;;;15.27;13.13;;;;;;;12.69;88.38;100296.97;5073198;28;20205;-61
2022/05/05 04:21:39;;;;;;;15.87;11.67;;;;;;;12.63;86.77;100299.06;5038130;28;20233;-61
2022/05/05 04:24:05;;;;;;;15.97;12.70;;;;;;;12.64;88.25;100311.91;5052991;28;20173;-61
2022/05/05 04:26:31;;;;;;;15.33;12.03;;;;;;;12.71;89.01;100305.47;5052855;28;20174;-61
2022/05/05 04:28:57;;;;;;;15.37;13.07;;;;;;;12.87;88.74;100310.50;5053441;28;20182;-61
2022/05/05 04:31:26;;;;;;;14.10;12.30;;;;;;;12.94;87.38;100310.97;5053142;28;20224;-61
2022/05/05 04:33:51;;;;;;;17.03;13.40;;;;;;;12.99;86.54;100314.09;5057830;28;20239;-61
2022/05/05 04:36:17;;;;;;;18.10;13.13;;;;;;;13.00;86.44;100325.25;5052428;28;20181;-62
2022/05/05 04:38:42;;;;;;;17.93;13.57;;;;;;;12.84;87.93;100330.53;5053377;28;20225;-62
2022/05/05 04:41:07;;;;;;;13.07;11.77;;;;;;;12.83;89.00;100327.09;5044256;28;20246;-61
2022/05/05 04:43:33;;;;;;;17.13;13.67;;;;;;;12.90;89.30;100338.72;5039841;28;20174;-62
2022/05/05 04:45:59;;;;;;;14.77;12.97;;;;;;;13.01;90.03;100340.66;5032541;28;20557;-62
2022/05/05 04:48:24;;;;;;;16.63;13.53;;;;;;;12.94;90.76;100335.94;5032845;28;20185;-61
2022/05/05 04:50:49;;;;;;;14.53;12.70;;;;;;;12.89;92.43;100344.81;5028685;28;20634;-62
2022/05/05 04:53:14;;;;;;;16.70;13.77;;;;;;;12.80;93.34;100342.78;5042296;28;20178;-61
2022/05/05 04:55:40;;;;;;;14.63;12.07;;;;;;;12.87;92.13;100348.41;5032830;28;20662;-62
2022/05/05 04:58:05;;;;;;;15.83;12.67;;;;;;;12.83;89.80;100344.34;5047714;28;20236;-61
2022/05/05 05:00:31;;;;;;;18.37;12.23;;;;;;;12.62;88.98;100347.28;5026371;28;20225;-62
2022/05/05 05:02:57;;;;;;;14.00;12.10;;;;;;;12.67;89.66;100353.00;5063605;28;20648;-61
2022/05/05 05:05:22;;;;;;;17.63;12.43;;;;;;;12.76;90.11;100349.03;5052258;28;20181;-61
2022/05/05 05:07:47;;;;;;;14.13;11.50;;;;;;;12.81;89.31;100352.16;5051727;28;20231;-61
2022/05/05 05:10:13;;;;;;;17.43;12.33;;;;;;;12.70;89.88;100349.41;5043756;28;20205;-61
2022/05/05 05:12:38;;;;;;;14.63;12.30;;;;;;;12.63;89.05;100354.09;5085538;28;20264;-61
2022/05/05 05:15:05;;;;;;;16.83;12.60;;;;;;;12.71;89.11;100351.06;5052304;28;20323;-61
2022/05/05 05:17:30;;;;;;;15.73;11.80;;;;;;;12.85;88.36;100363.13;5051483;28;20284;-62
2022/05/05 05:19:55;;;;;;;13.87;12.37;;;;;;;12.94;88.17;100370.34;5066003;28;20176;-62
2022/05/05 05:22:22;;;;;;;14.53;11.97;;;;;;;13.01;87.23;100373.38;5041439;28;20217;-62
2022/05/05 05:24:47;;;;;;;18.37;12.23;;;;;;;13.01;87.14;100383.72;5050971;28;20597;-61
2022/05/05 05:27:12;;;;;;;17.30;12.47;;;;;;;12.99;87.65;100385.56;5051747;28;20260;-61
2022/05/05 05:29:38;;;;;;;15.43;11.77;;;;;;;12.99;86.81;100386.38;5051938;28;20177;-61
2022/05/05 05:32:03;;;;;;;14.80;11.90;;;;;;;13.00;86.34;100395.81;5057333;28;20248;-61
2022/05/05 05:34:29;;;;;;;15.80;11.77;;;;;;;13.11;85.97;100391.72;5072054;28;20196;-62
2022/05/05 05:36:55;;;;;;;18.77;12.47;;;;;;;13.01;85.87;100402.63;5069249;28;20173;-62
2022/05/05 05:39:21;;;;;;;14.63;13.10;;;;;;;13.01;87.06;100412.97;5061684;28;20208;-62
2022/05/05 05:41:46;;;;;;;16.40;11.67;;;;;;;13.07;85.98;100415.19;5063364;28;20435;-62
2022/05/05 05:44:11;;;;;;;15.60;12.27;;;;;;;13.15;85.21;100417.28;5073874;28;20173;-62
2022/05/05 05:46:37;;;;;;;13.33;11.93;;;;;;;13.11;84.58;100417.56;5071556;28;20173;-62
2022/05/05 05:49:04;;;;;;;16.77;12.23;;;;;;;13.07;84.02;100416.91;5071812;28;20184;-62
2022/05/05 05:51:29;;;;;;;14.17;12.67;;;;;;;13.17;83.75;100418.03;5060753;28;20224;-62
2022/05/05 05:53:54;;;;;;;17.17;12.23;;;;;;;13.17;82.36;100420.63;5071743;28;20515;-61
2022/05/05 05:56:20;;;;;;;13.83;11.43;;;;;;;13.09;84.04;100412.50;5071346;28;20173;-62
2022/05/05 05:58:45;;;;;;;13.03;11.17;;;;;;;13.09;81.88;100412.50;5075464;28;20339;-62
2022/05/05 06:01:10;;;;;;;16.27;12.13;;;;;;;13.07;80.94;100415.19;5069531;28;20270;-61
2022/05/05 06:03:54;;;;;;;13.50;11.13;;;;;;;13.06;79.49;100413.50;5075091;28;20177;-62
2022/05/05 06:06:24;;;;;;;13.30;11.90;;;;;;;13.13;79.99;100416.53;5075561;28;20536;-61
2022/05/05 06:08:49;;;;;;;15.30;11.60;;;;;;;13.08;79.76;100414.25;5075932;28;20229;-62
2022/05/05 06:11:17;;;;;;;16.57;11.13;;;;;;;12.97;79.21;100414.03;5074965;28;20622;-63
2022/05/05 06:13:43;;;;;;;13.27;11.20;;;;;;;13.00;79.96;100416.47;5080910;28;20247;-62
2022/05/05 06:16:10;;;;;;;13.93;10.60;;;;;;;13.04;79.68;100415.34;5075300;28;20220;-61
2022/05/05 06:18:38;;;;;;;14.90;11.13;;;;;;;13.26;79.81;100421.81;5075599;28;20200;-62
2022/05/05 06:21:04;;;;;;;13.23;11.93;;;;;;;13.45;79.62;100428.47;5072965;28;20238;-62
2022/05/05 06:23:29;;;;;;;13.53;11.53;;;;;;;13.48;78.79;100434.28;5083034;28;20173;-62
2022/05/05 06:25:54;;;;;;;16.33;11.73;;;;;;;13.52;80.89;100427.16;5075623;28;20212;-62
2022/05/05 06:28:19;;;;;;;18.87;12.67;;;;;;;13.53;83.11;100434.84;5075086;28;20536;-62
2022/05/05 06:30:45;;;;;;;16.90;12.27;;;;;;;13.39;85.74;100435.66;5070702;28;20224;-62
2022/05/05 06:33:10;;;;;;;18.47;13.40;;;;;;;13.55;88.52;100437.31;5079418;28;20251;-61
2022/05/05 06:35:36;;;;;;;16.03;14.00;;;;;;;13.53;92.36;100447.75;5065865;28;20188;-61
2022/05/05 06:38:02;;;;;;;17.57;15.73;;;;;;;13.50;96.39;100449.69;5070353;28;20193;-61
2022/05/05 06:40:28;;;;;;;17.67;14.77;;;;;;;13.43;97.89;100445.81;5066276;28;20684;-61
2022/05/05 06:42:53;;;;;;;20.33;15.80;;;;;;;13.31;99.06;100447.34;5074464;28;20169;-60
2022/05/05 06:45:18;;;;;;;17.43;15.63;;;;;;;13.20;100.00;100445.44;5073384;28;20176;-62
2022/05/05 06:47:44;;;;;;;20.90;15.73;;;;;;;13.13;100.00;100444.13;5074271;28;20177;-61
2022/05/05 06:50:09;;;;;;;18.13;15.27;;;;;;;13.01;100.00;100441.38;5064697;28;20172;-62
2022/05/05 06:52:35;;;;;;;16.63;14.57;;;;;;;12.86;98.06;100448.28;5045536;28;20270;-61
2022/05/05 06:55:00;;;;;;;16.77;15.07;;;;;;;12.93;100.00;100451.31;5057436;28;20169;-61
2022/05/05 06:57:26;;;;;;;17.23;15.03;;;;;;;13.02;100.00;100455.94;5056347;28;20649;-61
2022/05/05 06:59:52;;;;;;;17.67;15.80;;;;;;;13.13;100.00;100457.06;5054156;28;20181;-61
2022/05/05 07:02:18;;;;;;;23.17;16.50;;;;;;;13.11;100.00;100458.88;5030063;28;20218;-61
2022/05/05 07:07:27;;;;;;;18.60;15.60;;;;;;;13.17;100.00;100466.28;5055936;28;20192;-62
2022/05/05 07:12:36;;;;;;;16.40;14.67;;;;;;;13.23;100.00;100466.75;5060567;28;20847;-63
2022/05/05 07:15:02;;;;;;;15.40;13.80;;;;;;;13.07;100.00;100471.16;5069768;28;20307;-63
2022/05/05 07:17:27;;;;;;;16.03;13.93;;;;;;;13.13;100.00;100470.78;5068640;28;20592;-62
2022/05/05 07:19:53;;;;;;;17.47;15.13;;;;;;;13.17;100.00;100474.00;5061496;28;20181;-62
2022/05/05 07:22:19;;;;;;;18.50;15.23;;;;;;;13.35;100.00;100480.66;5058742;28;20959;-62
2022/05/05 07:24:46;;;;;;;18.73;15.50;;;;;;;13.20;100.00;100487.59;5056486;28;20271;-61
2022/05/05 07:27:11;;;;;;;16.27;14.57;;;;;;;13.24;100.00;100490.81;5052976;28;20834;-61
2022/05/05 07:29:41;;;;;;;17.80;14.80;;;;;;;13.19;100.00;100492.84;5059512;28;20176;-61
2022/05/05 07:32:07;;;;;;;16.33;14.63;;;;;;;13.43;100.00;100489.75;5021388;28;21607;-65
2022/05/05 07:34:34;;;;;;;17.40;15.50;;;;;;;13.37;100.00;100494.38;5073113;28;20165;-66
2022/05/05 07:37:00;;;;;;;18.00;15.83;;;;;;;13.35;100.00;100493.59;5066341;28;20255;-66
2022/05/05 07:39:25;;;;;;;18.40;14.30;;;;;;;13.26;100.00;100495.88;5073485;28;20606;-66
2022/05/05 07:41:51;;;;;;;15.60;13.70;;;;;;;12.93;100.00;100496.97;5079027;28;20259;-66
2022/05/05 07:44:16;;;;;;;15.23;13.47;;;;;;;13.07;100.00;100502.13;5059433;28;20212;-66
2022/05/05 07:46:41;;;;;;;16.30;13.63;;;;;;;13.42;100.00;100501.84;5054694;28;20688;-65
2022/05/05 07:49:07;;;;;;;19.60;15.13;;;;;;;13.64;100.00;100495.38;5055143;28;20238;-65
2022/05/05 07:51:34;;;;;;;16.70;13.87;;;;;;;13.53;99.40;100499.44;5046791;28;20683;-65
2022/05/05 07:56:44;;;;;;;16.83;14.03;;;;;;;13.71;100.00;100500.06;5070481;28;20266;-67
2022/05/05 07:59:10;;;;;;;17.00;14.30;;;;;;;13.78;99.66;100497.09;5057229;28;20205;-65
2022/05/05 08:01:36;;;;;;;16.07;13.60;;;;;;;13.85;98.79;100501.81;5055592;28;20224;-66
2022/05/05 08:04:02;;;;;;;14.63;13.17;;;;;;;13.86;98.01;100500.06;5058135;28;20185;-65
2022/05/05 08:06:27;;;;;;;16.30;12.87;;;;;;;13.85;95.90;100506.16;5053702;28;20713;-65
2022/05/05 08:08:52;;;;;;;13.07;11.63;;;;;;;14.17;96.18;100503.31;5056898;28;20189;-66
2022/05/05 08:11:18;;;;;;;12.13;10.70;;;;;;;14.53;91.13;100513.03;5053103;28;20225;-66
2022/05/05 08:13:43;;;;;;;12.90;10.93;;;;;;;14.15;83.67;100512.91;5065541;28;20197;-66
2022/05/05 08:16:09;;;;;;;13.40;12.07;;;;;;;14.42;86.96;100517.28;5054121;28;20314;-67
2022/05/05 08:18:38;;;;;;;15.00;11.40;;;;;;;14.69;86.24;100517.28;5062063;28;20205;-64
2022/05/05 08:21:04;;;;;;;14.83;11.50;;;;;;;15.05;85.87;100525.31;5047349;28;20232;-66
2022/05/05 08:23:29;;;;;;;15.80;11.40;;;;;;;15.09;82.95;100522.41;5047726;28;20192;-66
2022/05/05 08:28:40;;;;;;;12.60;10.80;;;;;;;15.80;78.31;100527.97;5056892;28;20201;-66
2022/05/05 08:31:06;;;;;;;12.37;10.10;;;;;;;16.00;74.22;100528.38;5045543;28;20227;-64
2022/05/05 08:33:31;;;;;;;12.73;10.83;;;;;;;16.49;73.60;100524.00;5057218;28;20194;-64
2022/05/05 08:35:58;;;;;;;11.90;10.40;;;;;;;16.75;72.51;100529.06;5057693;28;20195;-65
2022/05/05 08:38:23;;;;;;;11.90;10.73;;;;;;;16.65;70.75;100533.28;5071439;28;20686;-65
2022/05/05 08:40:49;;;;;;;13.43;9.77;;;;;;;16.86;68.24;100536.91;5053349;28;20228;-65
2022/05/05 08:43:14;;;;;;;11.57;9.17;;;;;;;17.64;60.14;100538.91;5062547;28;20663;-65
2022/05/05 08:45:40;;;;;;;12.57;9.30;;;;;;;18.03;56.13;100531.56;5061912;28;20631;-65
2022/05/05 08:48:08;;;;;;;11.23;9.00;;;;;;;17.79;57.52;100536.91;5055083;28;20188;-65
2022/05/05 08:50:36;;;;;;;16.30;9.97;;;;;;;17.67;59.43;100536.88;5044326;28;20232;-66
2022/05/05 08:53:03;;;;;;;12.30;9.43;;;;;;;17.52;62.07;100541.50;5051718;28;20173;-65
2022/05/05 08:55:30;;;;;;;11.17;9.17;;;;;;;17.68;60.56;100542.94;5052260;28;20272;-64
2022/05/05 08:57:56;;;;;;;13.00;9.67;;;;;;;17.70;59.87;100548.84;5051675;28;20201;-64
2022/05/05 09:00:21;;;;;;;11.50;10.00;;;;;;;16.90;59.42;100551.31;5026931;28;20647;-64
2022/05/05 09:02:53;;;;;;;10.73;9.57;;;;;;;17.03;59.47;100548.66;5071594;28;20173;-65
2022/05/05 09:05:44;;;;;;;15.03;10.67;;;;;;;17.08;61.07;100550.94;5071816;28;20181;-66
2022/05/05 09:08:33;;;;;;;11.23;8.43;;;;;;;17.30;56.85;100547.53;5072561;28;20475;-65
2022/05/05 09:11:05;;;;;;;13.20;8.83;;;;;;;17.50;55.96;100555.56;5069678;28;20307;-64
2022/05/05 09:13:37;;;;;;;11.90;8.43;;;;;;;17.10;58.22;100557.66;5080096;28;20173;-63
2022/05/05 09:16:05;;;;;;;11.57;8.80;;;;;;;17.08;59.14;100551.75;5054139;28;20276;-67
2022/05/05 09:18:34;;;;;;;12.83;8.30;;;;;;;16.98;58.45;100549.94;5054224;28;20252;-65
2022/05/05 09:21:03;;;;;;;10.53;8.70;;;;;;;16.97;61.08;100546.53;5045101;28;20706;-63
2022/05/05 09:23:36;;;;;;;12.53;9.40;;;;;;;17.32;57.59;100550.03;5060781;28;20207;-65
2022/05/05 09:26:04;;;;;;;10.77;9.53;;;;;;;17.81;57.62;100550.59;5067228;28;20275;-64
2022/05/05 09:28:31;;;;;;;16.37;9.17;;;;;;;17.21;54.78;100556.84;5067420;28;20254;-64
2022/05/05 09:31:03;;;;;;;12.10;9.13;;;;;;;16.89;56.20;100557.47;5049390;28;20695;-65
2022/05/05 09:33:37;;;;;;;10.97;8.43;;;;;;;17.16;55.72;100558.16;5063383;28;20176;-64
2022/05/05 09:36:05;;;;;;;9.57;7.70;;;;;;;17.22;54.61;100558.50;5065719;28;20187;-65
2022/05/05 09:38:53;;;;;;;9.03;7.10;;;;;;;17.09;55.50;100569.00;5051875;28;20207;-65
2022/05/05 09:41:24;;;;;;;12.43;7.13;;;;;;;17.46;52.34;100560.19;5053442;28;20291;-65
2022/05/05 09:43:53;;;;;;;6.73;6.03;;;;;;;17.38;51.73;100565.97;5051899;28;20223;-65
2022/05/05 09:46:25;;;;;;;10.40;6.93;;;;;;;17.12;50.72;100567.09;5054672;28;20192;-65
2022/05/05 09:48:51;;;;;;;14.53;7.43;;;;;;;17.35;52.18;100565.38;5059576;28;20264;-65
2022/05/05 09:51:17;;;;;;;9.57;7.00;;;;;;;17.45;50.98;100561.13;5064821;28;20253;-62
2022/05/05 09:59:29;;;;;;;12.10;7.83;;;;;;;17.51;50.71;100565.84;5071839;28;20235;-65
2022/05/05 10:02:04;;;;;;;11.13;7.10;;;;;;;17.61;47.75;100565.16;5064911;28;20244;-65
2022/05/05 10:04:33;;;;;;;12.07;7.07;;;;;;;17.21;48.01;100564.63;5072728;28;20559;-65
2022/05/05 10:07:02;;;;;;;18.70;6.97;;;;;;;17.04;49.01;100570.28;5066567;28;20256;-64
2022/05/05 10:09:28;;;;;;;11.80;7.50;;;;;;;16.88;48.66;100575.75;5050442;28;20199;-64
2022/05/05 10:11:54;;;;;;;9.80;6.40;;;;;;;16.98;48.14;100573.34;5055167;28;20221;-65
2022/05/05 10:14:20;;;;;;;12.90;7.47;;;;;;;16.98;47.07;100566.38;5082212;28;20181;-65
2022/05/05 10:16:46;;;;;;;10.83;8.00;;;;;;;16.90;47.80;100566.91;5070541;28;20521;-67
2022/05/05 10:19:12;;;;;;;10.10;6.37;;;;;;;17.12;46.63;100572.28;5071602;28;20277;-65
2022/05/05 10:21:55;;;;;;;8.70;6.00;;;;;;;17.23;46.47;100565.38;5075005;28;20295;-65
2022/05/05 10:24:31;;;;;;;8.07;6.13;;;;;;;17.31;45.25;100563.97;5052427;28;20169;-66
2022/05/05 10:27:02;;;;;;;11.10;6.27;;;;;;;17.64;43.71;100563.16;5067046;28;20208;-65
2022/05/05 10:29:30;;;;;;;9.40;6.10;;;;;;;17.88;44.12;100564.81;5068204;28;20189;-64
2022/05/05 10:32:07;;;;;;;11.47;6.30;;;;;;;17.80;43.06;100564.56;5056820;28;20250;-63
2022/05/05 10:34:34;;;;;;;10.55;6.35;;;;;;;17.64;41.60;100552.75;5077271;28;20408;-65
2022/05/05 10:37:02;;;;;;;6.57;5.60;;;;;;;17.06;41.51;100560.59;5067076;28;20182;-68
2022/05/05 10:39:43;;;;;;;7.47;5.50;;;;;;;16.90;42.56;100563.47;5053497;28;20201;-65
2022/05/05 10:42:35;;;;;;;8.33;5.33;;;;;;;17.14;43.20;100565.22;5057209;28;20362;-66
2022/05/05 10:45:09;;;;;;;9.13;6.17;;;;;;;17.65;41.89;100566.56;5065312;28;20181;-67
2022/05/05 10:47:46;;;;;;;9.47;5.60;;;;;;;17.69;41.76;100561.03;5075535;28;20183;-66
2022/05/05 10:50:50;;;;;;;7.00;5.00;;;;;;;17.61;42.36;100563.38;5063397;28;20264;-65
2022/05/05 10:53:24;;;;;;;7.80;5.60;;;;;;;17.50;43.23;100566.81;5072655;28;20255;-66
2022/05/05 10:55:50;;;;;;;8.53;5.57;;;;;;;17.98;44.10;100554.53;5059629;28;20185;-68
2022/05/05 10:58:54;;;;;;;9.57;5.90;;;;;;;18.06;43.69;100555.59;5054067;28;20209;-65
2022/05/05 11:01:20;;;;;;;10.07;5.60;;;;;;;18.38;42.45;100556.56;5051114;28;20239;-66
2022/05/05 11:04:05;;;;;;;9.03;5.00;;;;;;;18.17;41.42;100556.50;5075334;28;20260;-65
2022/05/05 11:06:32;;;;;;;8.40;5.30;;;;;;;18.92;41.94;100551.41;5075637;28;20175;-68
2022/05/05 11:08:58;;;;;;;10.90;5.40;;;;;;;19.12;39.72;100553.16;5076139;28;20175;-68
2022/05/05 11:11:41;;;;;;;8.67;5.00;;;;;;;19.67;38.22;100555.50;5063490;28;20303;-68
2022/05/05 11:23:04;;;;;;;9.17;5.23;;;;;;;19.28;39.49;100559.72;5067722;28;20208;-66
2022/05/05 11:25:30;;;;;;;9.60;5.40;;;;;;;18.96;39.42;100552.78;5070669;28;20200;-65
2022/05/05 11:27:56;;;;;;;7.60;5.17;;;;;;;19.29;39.35;100559.59;5055397;28;20610;-67
2022/05/05 11:30:22;;;;;;;7.97;5.20;;;;;;;19.64;39.51;100558.34;5037078;28;20260;-67
2022/05/05 11:32:48;;;;;;;16.80;6.73;;;;;;;19.76;38.92;100555.66;5059257;28;20185;-67
2022/05/05 11:35:20;;;;;;;11.80;5.57;;;;;;;20.09;39.92;100554.53;5070375;28;20567;-68
2022/05/05 11:37:45;;;;;;;10.53;5.90;;;;;;;20.32;37.66;100557.72;5053781;28;20211;-67
2022/05/05 11:40:12;;;;;;;7.57;5.37;;;;;;;19.97;38.42;100553.84;5048098;28;20256;-66
2022/05/05 11:44:14;;;;;;;9.87;6.00;;;;;;;19.51;39.34;100548.16;5068147;28;20212;-67
2022/05/05 11:45:29;;;;;;;9.43;5.30;;;;;;;19.12;40.13;100560.19;5054378;28;20193;-68
2022/05/05 11:47:55;;;;;;;6.33;5.00;;;;;;;19.09;40.34;100557.81;5054163;28;20189;-67
2022/05/05 11:50:20;;;;;;;13.90;6.90;;;;;;;19.10;40.37;100552.50;5049864;28;20652;-67
2022/05/05 11:52:46;;;;;;;8.17;5.30;;;;;;;19.32;40.41;100555.88;5072204;28;20179;-67
2022/05/05 11:55:13;;;;;;;8.10;6.37;;;;;;;18.71;40.72;100545.19;5072929;28;20292;-67